VOE50SN LFRS-LIMC
Flight info
| Callsign | VOE50SN |
|---|---|
| Flight time | 1h 13m |
| Altitude | 29000 |
| Route | LUGEN UM184 TUPAR DCT DIDRU DCT BEBIX/N0459F280 DCT VALKU/N0471F290 DCT TIS DCT MEBAK/N0456F350 DCT GIPNO DCT BALSI DCT OBIGO DCT ROBEX DCT LAPRI/N0453F360 DCT MOGBO/N0451F370 DCT KODOK/N0403F190 M730 TOP M135 ASTIG |
| Aircraft | A320/M-SDE3FGHIRWY/LB1 |
Departure
| Time | 2026-04-30 19:51 |
|---|---|
| Airport | Nantes Atlantique Airport (LFRS) |
Arrival
| Time | 2026-04-30 21:04 |
|---|---|
| Airport | Milan Malpensa International Airport (LIMC) |
| Time | Latitude | Longitude | Altitude | Speed | Heading |
|---|---|---|---|---|---|
| 2026-04-30 19:30 | 47.15712 | -1.60270 | 91 ft | 0 kts | 44° |
| 2026-04-30 19:45 | 47.15705 | -1.60279 | 92 ft | 4 kts | 42° |
| 2026-04-30 19:45 | 47.15685 | -1.60304 | 90 ft | 4 kts | 34° |
| 2026-04-30 19:45 | 47.15662 | -1.60322 | 90 ft | 4 kts | 10° |
| 2026-04-30 19:45 | 47.15641 | -1.60319 | 90 ft | 1 kts | 319° |
| 2026-04-30 19:46 | 47.15640 | -1.60319 | 90 ft | 0 kts | 319° |
| 2026-04-30 19:47 | 47.15647 | -1.60328 | 90 ft | 5 kts | 319° |
| 2026-04-30 19:48 | 47.15702 | -1.60398 | 92 ft | 15 kts | 320° |
| 2026-04-30 19:48 | 47.15797 | -1.60436 | 90 ft | 15 kts | 19° |
| 2026-04-30 19:48 | 47.15885 | -1.60371 | 90 ft | 13 kts | 27° |
| 2026-04-30 19:48 | 47.15962 | -1.60313 | 91 ft | 12 kts | 27° |
| 2026-04-30 19:49 | 47.16028 | -1.60263 | 91 ft | 10 kts | 27° |
| 2026-04-30 19:49 | 47.16181 | -1.60146 | 91 ft | 18 kts | 27° |
| 2026-04-30 19:49 | 47.16300 | -1.60057 | 91 ft | 20 kts | 22° |
| 2026-04-30 19:50 | 47.16435 | -1.60112 | 84 ft | 21 kts | 316° |
| 2026-04-30 19:50 | 47.16386 | -1.60256 | 88 ft | 18 kts | 209° |
| 2026-04-30 19:50 | 47.16171 | -1.60423 | 89 ft | 67 kts | 207° |
| 2026-04-30 19:50 | 47.15564 | -1.60891 | 88 ft | 127 kts | 208° |
| 2026-04-30 19:51 | 47.14638 | -1.61619 | 141 ft | 169 kts | 208° |
| 2026-04-30 19:51 | 47.13593 | -1.62435 | 763 ft | 171 kts | 208° |
| 2026-04-30 19:51 | 47.12518 | -1.63200 | 1466 ft | 173 kts | 204° |
| 2026-04-30 19:51 | 47.11353 | -1.63663 | 2064 ft | 180 kts | 175° |
| 2026-04-30 19:52 | 47.10166 | -1.62871 | 2350 ft | 205 kts | 135° |
| 2026-04-30 19:52 | 47.09481 | -1.60913 | 2657 ft | 232 kts | 110° |
| 2026-04-30 19:52 | 47.08969 | -1.58530 | 3099 ft | 254 kts | 109° |
| 2026-04-30 19:52 | 47.08430 | -1.56029 | 3842 ft | 261 kts | 109° |
| 2026-04-30 19:53 | 47.07875 | -1.53457 | 4715 ft | 265 kts | 109° |
| 2026-04-30 19:53 | 47.07317 | -1.50901 | 5577 ft | 268 kts | 110° |
| 2026-04-30 19:53 | 47.06422 | -1.48486 | 6403 ft | 270 kts | 132° |
| 2026-04-30 19:53 | 47.05049 | -1.46578 | 7240 ft | 272 kts | 139° |
| 2026-04-30 19:54 | 47.03631 | -1.44731 | 8069 ft | 274 kts | 139° |
| 2026-04-30 19:54 | 47.02220 | -1.42904 | 8875 ft | 277 kts | 139° |
| 2026-04-30 19:54 | 47.00771 | -1.41029 | 9701 ft | 279 kts | 139° |
| 2026-04-30 19:54 | 46.99309 | -1.39130 | 10448 ft | 284 kts | 139° |
| 2026-04-30 19:55 | 46.97767 | -1.37124 | 10696 ft | 307 kts | 139° |
| 2026-04-30 19:55 | 46.96113 | -1.34977 | 10899 ft | 330 kts | 139° |
| 2026-04-30 19:55 | 46.94336 | -1.32672 | 11035 ft | 352 kts | 139° |
| 2026-04-30 19:55 | 46.92478 | -1.30260 | 11470 ft | 362 kts | 139° |
| 2026-04-30 19:56 | 46.90580 | -1.27789 | 12110 ft | 366 kts | 138° |
| 2026-04-30 19:56 | 46.88675 | -1.25306 | 12767 ft | 369 kts | 138° |
| 2026-04-30 19:56 | 46.86753 | -1.22807 | 13444 ft | 372 kts | 138° |
| 2026-04-30 19:56 | 46.84803 | -1.20274 | 14079 ft | 375 kts | 139° |
| 2026-04-30 19:57 | 46.82847 | -1.17735 | 14644 ft | 379 kts | 138° |
| 2026-04-30 19:57 | 46.80871 | -1.15171 | 15210 ft | 382 kts | 138° |
| 2026-04-30 19:57 | 46.78873 | -1.12580 | 15779 ft | 385 kts | 138° |
| 2026-04-30 19:57 | 46.76857 | -1.09972 | 16345 ft | 389 kts | 138° |
| 2026-04-30 19:58 | 46.74823 | -1.07340 | 16910 ft | 392 kts | 138° |
| 2026-04-30 19:58 | 46.72774 | -1.04689 | 17473 ft | 395 kts | 138° |
| 2026-04-30 19:58 | 46.70705 | -1.02014 | 18024 ft | 399 kts | 138° |
| 2026-04-30 19:58 | 46.68621 | -0.99326 | 18554 ft | 402 kts | 138° |
| 2026-04-30 19:59 | 46.66515 | -0.96615 | 19004 ft | 405 kts | 138° |
| 2026-04-30 19:59 | 46.64400 | -0.93896 | 19464 ft | 408 kts | 138° |
| 2026-04-30 19:59 | 46.60116 | -0.88396 | 20360 ft | 413 kts | 138° |
| 2026-04-30 20:00 | 46.57948 | -0.85620 | 20785 ft | 416 kts | 138° |
| 2026-04-30 20:00 | 46.55800 | -0.82861 | 21227 ft | 418 kts | 137° |
| 2026-04-30 20:00 | 46.53595 | -0.80018 | 21672 ft | 419 kts | 137° |
| 2026-04-30 20:00 | 46.51437 | -0.77234 | 22116 ft | 420 kts | 137° |
| 2026-04-30 20:01 | 46.47029 | -0.71565 | 22899 ft | 425 kts | 137° |
| 2026-04-30 20:01 | 46.44831 | -0.68689 | 23260 ft | 427 kts | 134° |
| 2026-04-30 20:01 | 46.42887 | -0.65432 | 23624 ft | 428 kts | 125° |
| 2026-04-30 20:02 | 46.39964 | -0.57890 | 24237 ft | 431 kts | 116° |
| 2026-04-30 20:02 | 46.38600 | -0.54019 | 24534 ft | 433 kts | 116° |
| 2026-04-30 20:03 | 46.35863 | -0.46285 | 25119 ft | 436 kts | 116° |
| 2026-04-30 20:03 | 46.34467 | -0.42357 | 25387 ft | 438 kts | 116° |
| 2026-04-30 20:03 | 46.33066 | -0.38436 | 25649 ft | 440 kts | 116° |
| 2026-04-30 20:03 | 46.31655 | -0.34489 | 25917 ft | 441 kts | 116° |
| 2026-04-30 20:04 | 46.30242 | -0.30532 | 26176 ft | 443 kts | 116° |
| 2026-04-30 20:04 | 46.28836 | -0.26590 | 26413 ft | 444 kts | 116° |
| 2026-04-30 20:04 | 46.27424 | -0.22633 | 26653 ft | 446 kts | 116° |
| 2026-04-30 20:05 | 46.24570 | -0.14649 | 27094 ft | 449 kts | 117° |
| 2026-04-30 20:05 | 46.23129 | -0.10631 | 27335 ft | 450 kts | 117° |
| 2026-04-30 20:05 | 46.20244 | -0.02622 | 27959 ft | 448 kts | 117° |
| 2026-04-30 20:06 | 46.18836 | 0.01385 | 28308 ft | 446 kts | 114° |
| 2026-04-30 20:06 | 46.17784 | 0.05570 | 28713 ft | 442 kts | 105° |
| 2026-04-30 20:06 | 46.17066 | 0.09870 | 29068 ft | 441 kts | 103° |
| 2026-04-30 20:06 | 46.16361 | 0.14180 | 29386 ft | 441 kts | 103° |
| 2026-04-30 20:07 | 46.15651 | 0.18490 | 29673 ft | 441 kts | 103° |
| 2026-04-30 20:07 | 46.14941 | 0.22781 | 29975 ft | 441 kts | 103° |
| 2026-04-30 20:07 | 46.13524 | 0.31340 | 30537 ft | 441 kts | 103° |
| 2026-04-30 20:08 | 46.12807 | 0.35654 | 30781 ft | 441 kts | 103° |
| 2026-04-30 20:08 | 46.12090 | 0.39956 | 31033 ft | 441 kts | 103° |
| 2026-04-30 20:08 | 46.11375 | 0.44245 | 31321 ft | 440 kts | 103° |
| 2026-04-30 20:08 | 46.10659 | 0.48532 | 31586 ft | 439 kts | 103° |
| 2026-04-30 20:09 | 46.09944 | 0.52807 | 31829 ft | 440 kts | 103° |
| 2026-04-30 20:09 | 46.09224 | 0.57085 | 32060 ft | 440 kts | 104° |
| 2026-04-30 20:09 | 46.07774 | 0.65632 | 32518 ft | 442 kts | 104° |
| 2026-04-30 20:10 | 46.06306 | 0.74255 | 32978 ft | 443 kts | 104° |
| 2026-04-30 20:10 | 46.05570 | 0.78575 | 33204 ft | 444 kts | 104° |
| 2026-04-30 20:10 | 46.04835 | 0.82888 | 33437 ft | 444 kts | 104° |
| 2026-04-30 20:11 | 46.03362 | 0.91537 | 33922 ft | 445 kts | 104° |
| 2026-04-30 20:11 | 46.02617 | 0.95871 | 34154 ft | 446 kts | 104° |
| 2026-04-30 20:11 | 46.01866 | 1.00211 | 34365 ft | 446 kts | 104° |
| 2026-04-30 20:12 | 46.00359 | 1.08887 | 34776 ft | 447 kts | 104° |
| 2026-04-30 20:12 | 45.99616 | 1.13170 | 34969 ft | 447 kts | 104° |
| 2026-04-30 20:12 | 45.98862 | 1.17514 | 35138 ft | 448 kts | 104° |
| 2026-04-30 20:13 | 45.98104 | 1.21869 | 35183 ft | 451 kts | 105° |
| 2026-04-30 20:13 | 45.96566 | 1.30640 | 35199 ft | 453 kts | 105° |
| 2026-04-30 20:14 | 45.95198 | 1.39524 | 35194 ft | 457 kts | 97° |
| 2026-04-30 20:14 | 45.95285 | 1.48680 | 35197 ft | 460 kts | 87° |
| 2026-04-30 20:15 | 45.95662 | 1.57849 | 35200 ft | 460 kts | 88° |
| 2026-04-30 20:15 | 45.96004 | 1.67047 | 35190 ft | 460 kts | 88° |
| 2026-04-30 20:16 | 45.96342 | 1.76157 | 35210 ft | 459 kts | 88° |
| 2026-04-30 20:16 | 45.96687 | 1.85314 | 35213 ft | 458 kts | 88° |
| 2026-04-30 20:17 | 45.97016 | 1.94441 | 35215 ft | 457 kts | 88° |
| 2026-04-30 20:17 | 45.97336 | 2.03563 | 35211 ft | 456 kts | 88° |
| 2026-04-30 20:18 | 45.97651 | 2.12678 | 35210 ft | 456 kts | 88° |
| 2026-04-30 20:18 | 45.97964 | 2.21780 | 35208 ft | 455 kts | 88° |
| 2026-04-30 20:19 | 45.98267 | 2.30833 | 35200 ft | 455 kts | 88° |
| 2026-04-30 20:19 | 45.98565 | 2.39936 | 35185 ft | 455 kts | 88° |
| 2026-04-30 20:20 | 45.98855 | 2.49027 | 35192 ft | 455 kts | 89° |
| 2026-04-30 20:20 | 45.99129 | 2.58079 | 35188 ft | 455 kts | 89° |
| 2026-04-30 20:21 | 45.99356 | 2.65680 | 35193 ft | 455 kts | 89° |
| 2026-04-30 20:21 | 45.99660 | 2.76250 | 35192 ft | 455 kts | 89° |
| 2026-04-30 20:22 | 45.99291 | 2.85264 | 35189 ft | 451 kts | 103° |
| 2026-04-30 20:22 | 45.97918 | 2.94058 | 35193 ft | 451 kts | 104° |
| 2026-04-30 20:23 | 45.96773 | 3.01366 | 35198 ft | 450 kts | 104° |
| 2026-04-30 20:23 | 45.95164 | 3.11627 | 35195 ft | 450 kts | 104° |
| 2026-04-30 20:24 | 45.93776 | 3.20423 | 35190 ft | 450 kts | 104° |
| 2026-04-30 20:24 | 45.92383 | 3.29196 | 35191 ft | 450 kts | 104° |
| 2026-04-30 20:25 | 45.90516 | 3.40872 | 35181 ft | 451 kts | 104° |
| 2026-04-30 20:26 | 45.88164 | 3.55451 | 35182 ft | 452 kts | 104° |
| 2026-04-30 20:26 | 45.86119 | 3.68658 | 35186 ft | 452 kts | 103° |
| 2026-04-30 20:27 | 45.83407 | 3.86296 | 35189 ft | 452 kts | 104° |
| 2026-04-30 20:28 | 45.81831 | 4.02653 | 35183 ft | 453 kts | 96° |
| 2026-04-30 20:30 | 45.80438 | 4.25162 | 35182 ft | 454 kts | 96° |
| 2026-04-30 20:31 | 45.78691 | 4.52193 | 35176 ft | 454 kts | 96° |
| 2026-04-30 20:32 | 45.77191 | 4.74676 | 35182 ft | 455 kts | 96° |
| 2026-04-30 20:33 | 45.76267 | 4.88231 | 35183 ft | 455 kts | 96° |
| 2026-04-30 20:34 | 45.75319 | 5.01761 | 35186 ft | 455 kts | 96° |
| 2026-04-30 20:35 | 45.74366 | 5.15321 | 35182 ft | 456 kts | 96° |
| 2026-04-30 20:35 | 45.73387 | 5.28812 | 35180 ft | 457 kts | 96° |
| 2026-04-30 20:36 | 45.72727 | 5.37880 | 35183 ft | 457 kts | 96° |
| 2026-04-30 20:37 | 45.71721 | 5.51451 | 35193 ft | 457 kts | 96° |
| 2026-04-30 20:37 | 45.71044 | 5.60487 | 35200 ft | 457 kts | 96° |
| 2026-04-30 20:38 | 45.70364 | 5.69537 | 35203 ft | 457 kts | 96° |
| 2026-04-30 20:38 | 45.69677 | 5.78573 | 35223 ft | 457 kts | 96° |
| 2026-04-30 20:39 | 45.68624 | 5.92137 | 35226 ft | 456 kts | 96° |
| 2026-04-30 20:40 | 45.67542 | 6.05609 | 35227 ft | 456 kts | 96° |
| 2026-04-30 20:40 | 45.66826 | 6.14617 | 35227 ft | 456 kts | 96° |
| 2026-04-30 20:41 | 45.65737 | 6.28136 | 35232 ft | 455 kts | 95° |
| 2026-04-30 20:41 | 45.65004 | 6.37112 | 35238 ft | 455 kts | 95° |
| 2026-04-30 20:42 | 45.64265 | 6.46038 | 35249 ft | 454 kts | 96° |
| 2026-04-30 20:43 | 45.63129 | 6.59520 | 35261 ft | 453 kts | 96° |
| 2026-04-30 20:43 | 45.62380 | 6.68390 | 35266 ft | 453 kts | 95° |
| 2026-04-30 20:44 | 45.61235 | 6.81793 | 35273 ft | 453 kts | 95° |
| 2026-04-30 20:45 | 45.59680 | 6.99633 | 35281 ft | 453 kts | 95° |
| 2026-04-30 20:45 | 45.58891 | 7.08572 | 35299 ft | 453 kts | 95° |
| 2026-04-30 20:46 | 45.57298 | 7.26404 | 35295 ft | 453 kts | 95° |
| 2026-04-30 20:47 | 45.56491 | 7.35301 | 34981 ft | 452 kts | 95° |
| 2026-04-30 20:47 | 45.56084 | 7.39747 | 34735 ft | 452 kts | 95° |
| 2026-04-30 20:48 | 45.55262 | 7.48658 | 33302 ft | 456 kts | 95° |
| 2026-04-30 20:48 | 45.54847 | 7.53154 | 32387 ft | 456 kts | 95° |
| 2026-04-30 20:48 | 45.54430 | 7.57658 | 31390 ft | 459 kts | 95° |
| 2026-04-30 20:48 | 45.54010 | 7.62168 | 30439 ft | 460 kts | 96° |
| 2026-04-30 20:49 | 45.53587 | 7.66708 | 29233 ft | 464 kts | 96° |
| 2026-04-30 20:49 | 45.53160 | 7.71260 | 28122 ft | 464 kts | 96° |
| 2026-04-30 20:49 | 45.52727 | 7.75831 | 26984 ft | 464 kts | 96° |
| 2026-04-30 20:50 | 45.51851 | 7.84992 | 24573 ft | 467 kts | 95° |
| 2026-04-30 20:50 | 45.51412 | 7.89567 | 23364 ft | 467 kts | 95° |
| 2026-04-30 20:50 | 45.50974 | 7.94131 | 22445 ft | 461 kts | 96° |
| 2026-04-30 20:50 | 45.50540 | 7.98631 | 21615 ft | 454 kts | 96° |
| 2026-04-30 20:51 | 45.50111 | 8.03054 | 20791 ft | 449 kts | 96° |
| 2026-04-30 20:51 | 45.49258 | 8.11789 | 19180 ft | 441 kts | 96° |
| 2026-04-30 20:51 | 45.48834 | 8.16089 | 18375 ft | 438 kts | 96° |
| 2026-04-30 20:52 | 45.48411 | 8.20372 | 17578 ft | 433 kts | 96° |
| 2026-04-30 20:52 | 45.47990 | 8.24584 | 16850 ft | 428 kts | 96° |
| 2026-04-30 20:52 | 45.47160 | 8.32883 | 15446 ft | 418 kts | 96° |
| 2026-04-30 20:53 | 45.46756 | 8.36922 | 14782 ft | 414 kts | 96° |
| 2026-04-30 20:53 | 45.46347 | 8.41010 | 14149 ft | 410 kts | 96° |
| 2026-04-30 20:53 | 45.45967 | 8.44975 | 13446 ft | 407 kts | 96° |
| 2026-04-30 20:54 | 45.45235 | 8.52881 | 12061 ft | 398 kts | 96° |
| 2026-04-30 20:54 | 45.44880 | 8.56776 | 11446 ft | 393 kts | 96° |
| 2026-04-30 20:54 | 45.44682 | 8.60579 | 10559 ft | 380 kts | 86° |
| 2026-04-30 20:55 | 45.44814 | 8.67586 | 9860 ft | 324 kts | 87° |
| 2026-04-30 20:55 | 45.45167 | 8.70595 | 9712 ft | 295 kts | 69° |
| 2026-04-30 20:55 | 45.45788 | 8.73333 | 8787 ft | 296 kts | 80° |
| 2026-04-30 20:56 | 45.45948 | 8.79450 | 6166 ft | 321 kts | 89° |
| 2026-04-30 20:56 | 45.45977 | 8.82665 | 5051 ft | 323 kts | 89° |
| 2026-04-30 20:56 | 45.44765 | 8.88222 | 4195 ft | 280 kts | 140° |
| 2026-04-30 20:57 | 45.43097 | 8.89281 | 4069 ft | 254 kts | 176° |
| 2026-04-30 20:57 | 45.41492 | 8.88739 | 4018 ft | 230 kts | 217° |
| 2026-04-30 20:57 | 45.40558 | 8.86980 | 4028 ft | 219 kts | 250° |
| 2026-04-30 20:58 | 45.40392 | 8.83069 | 4061 ft | 188 kts | 288° |
| 2026-04-30 20:58 | 45.40876 | 8.81471 | 4040 ft | 163 kts | 304° |
| 2026-04-30 20:58 | 45.41542 | 8.80284 | 4035 ft | 150 kts | 318° |
| 2026-04-30 20:58 | 45.42360 | 8.79391 | 4033 ft | 148 kts | 332° |
| 2026-04-30 20:59 | 45.44284 | 8.78507 | 3996 ft | 148 kts | 351° |
| 2026-04-30 20:59 | 45.45317 | 8.78223 | 3894 ft | 150 kts | 351° |
| 2026-04-30 21:00 | 45.47346 | 8.77666 | 3546 ft | 150 kts | 351° |
| 2026-04-30 21:00 | 45.49397 | 8.77103 | 3147 ft | 149 kts | 351° |
| 2026-04-30 21:01 | 45.51446 | 8.76540 | 2752 ft | 150 kts | 352° |
| 2026-04-30 21:01 | 45.52469 | 8.76258 | 2540 ft | 150 kts | 352° |
| 2026-04-30 21:01 | 45.54519 | 8.75700 | 2124 ft | 149 kts | 352° |
| 2026-04-30 21:02 | 45.55535 | 8.75412 | 1923 ft | 149 kts | 351° |
| 2026-04-30 21:02 | 45.56553 | 8.75117 | 1735 ft | 149 kts | 351° |
| 2026-04-30 21:02 | 45.57564 | 8.74842 | 1545 ft | 147 kts | 352° |
| 2026-04-30 21:02 | 45.58561 | 8.74591 | 1350 ft | 144 kts | 351° |
| 2026-04-30 21:03 | 45.59532 | 8.74299 | 1185 ft | 142 kts | 349° |
| 2026-04-30 21:03 | 45.60497 | 8.74033 | 1002 ft | 141 kts | 351° |
| 2026-04-30 21:03 | 45.61459 | 8.73778 | 827 ft | 140 kts | 351° |
| 2026-04-30 21:03 | 45.62394 | 8.73533 | 747 ft | 128 kts | 351° |
| 2026-04-30 21:04 | 45.63116 | 8.73324 | 743 ft | 83 kts | 349° |
| 2026-04-30 21:04 | 45.63502 | 8.73217 | 747 ft | 24 kts | 348° |
| 2026-04-30 21:04 | 45.63731 | 8.73059 | 747 ft | 8 kts | 322° |
| 2026-04-30 21:05 | 45.63762 | 8.73016 | 749 ft | 5 kts | 315° |
| 2026-04-30 21:05 | 45.63793 | 8.72968 | 751 ft | 9 kts | 310° |
| 2026-04-30 21:05 | 45.63839 | 8.72878 | 749 ft | 14 kts | 304° |
| 2026-04-30 21:05 | 45.63904 | 8.72730 | 748 ft | 23 kts | 301° |
| 2026-04-30 21:06 | 45.63949 | 8.72497 | 748 ft | 26 kts | 258° |
| 2026-04-30 21:06 | 45.63918 | 8.72233 | 750 ft | 28 kts | 269° |
| 2026-04-30 21:06 | 45.63902 | 8.71938 | 747 ft | 30 kts | 255° |
| 2026-04-30 21:06 | 45.63742 | 8.71843 | 750 ft | 28 kts | 174° |
| 2026-04-30 21:07 | 45.63550 | 8.71893 | 750 ft | 29 kts | 169° |
| 2026-04-30 21:07 | 45.63380 | 8.71938 | 750 ft | 14 kts | 168° |
| 2026-04-30 21:07 | 45.63318 | 8.71926 | 748 ft | 8 kts | 213° |
| 2026-04-30 21:07 | 45.63302 | 8.71859 | 749 ft | 8 kts | 259° |
| 2026-04-30 21:08 | 45.63287 | 8.71747 | 751 ft | 13 kts | 258° |
| 2026-04-30 21:08 | 45.63245 | 8.71668 | 750 ft | 9 kts | 175° |
| 2026-04-30 21:08 | 45.63186 | 8.71679 | 752 ft | 8 kts | 170° |
| 2026-04-30 21:08 | 45.63149 | 8.71653 | 748 ft | 5 kts | 236° |
| 2026-04-30 21:09 | 45.63141 | 8.71609 | 749 ft | 3 kts | 258° |
| 2026-04-30 21:09 | 45.63138 | 8.71589 | 752 ft | 0 kts | 259° |
| 2026-04-30 21:09 | 45.63138 | 8.71588 | 752 ft | 0 kts | 259° |